createdAt,value
2023-01-25T00:01:53.913Z,1.20
2023-01-25T00:04:24.201Z,1.20
2023-01-25T00:06:53.391Z,1.15
2023-01-25T00:09:23.516Z,1.10
2023-01-25T00:11:53.874Z,1.17
2023-01-25T00:14:23.536Z,1.10
2023-01-25T00:16:52.484Z,1.10
2023-01-25T00:19:21.645Z,1.10
2023-01-25T00:21:50.880Z,1.20
2023-01-25T00:24:20.366Z,1.20
2023-01-25T00:26:49.646Z,1.20
2023-01-25T00:29:19.284Z,1.20
2023-01-25T00:32:02.823Z,1.17
2023-01-25T00:34:51.698Z,1.20
2023-01-25T00:39:53.341Z,1.20
2023-01-25T00:42:22.691Z,1.17
2023-01-25T00:44:51.784Z,1.00
2023-01-25T00:47:21.863Z,1.20
2023-01-25T00:49:51.136Z,1.20
2023-01-25T00:52:20.209Z,1.20
2023-01-25T00:54:49.262Z,1.20
2023-01-25T00:57:18.185Z,1.13
2023-01-25T00:59:48.194Z,1.20
2023-01-25T01:02:18.398Z,1.20
2023-01-25T01:04:47.650Z,1.20
2023-01-25T01:07:16.717Z,1.20
2023-01-25T01:09:52.239Z,1.40
2023-01-25T01:12:21.074Z,1.20
2023-01-25T01:14:49.914Z,1.20
2023-01-25T01:17:18.817Z,1.20
2023-01-25T01:19:49.381Z,1.20
2023-01-25T01:22:18.321Z,1.20
2023-01-25T01:24:50.120Z,1.20
2023-01-25T01:27:20.429Z,1.20
2023-01-25T01:29:49.301Z,1.10
2023-01-25T01:32:18.139Z,1.10
2023-01-25T01:34:47.243Z,1.10
2023-01-25T01:37:16.134Z,1.17
2023-01-25T01:39:45.364Z,1.10
2023-01-25T01:42:14.187Z,1.17
2023-01-25T01:44:54.994Z,1.20
2023-01-25T01:47:39.287Z,1.20
2023-01-25T01:50:21.455Z,1.20
2023-01-25T01:52:52.555Z,1.10
2023-01-25T01:55:24.777Z,1.10
2023-01-25T01:58:00.390Z,1.20
2023-01-25T02:00:35.393Z,1.20
2023-01-25T02:03:04.811Z,1.15
2023-01-25T02:05:57.858Z,1.10
2023-01-25T02:08:27.671Z,1.10
2023-01-25T02:11:01.952Z,1.10
2023-01-25T02:13:32.465Z,1.10
2023-01-25T02:16:02.983Z,1.10
2023-01-25T02:18:32.623Z,1.00
2023-01-25T02:21:02.748Z,1.10
2023-01-25T02:23:56.119Z,1.10
2023-01-25T02:26:25.192Z,1.10
2023-01-25T02:29:04.949Z,1.10
2023-01-25T02:31:34.736Z,1.10
2023-01-25T02:34:03.771Z,1.10
2023-01-25T02:36:35.447Z,1.10
2023-01-25T02:39:12.877Z,1.10
2023-01-25T02:41:44.206Z,1.10
2023-01-25T02:44:17.404Z,1.10
2023-01-25T02:46:46.470Z,1.05
2023-01-25T02:49:16.978Z,1.10
2023-01-25T02:51:49.630Z,1.00
2023-01-25T02:54:21.078Z,1.10
2023-01-25T02:56:50.362Z,1.10
2023-01-25T02:59:19.667Z,1.10
2023-01-25T03:01:53.920Z,1.00
2023-01-25T03:04:23.187Z,1.02
2023-01-25T03:06:52.567Z,1.00
2023-01-25T03:09:22.161Z,1.05
2023-01-25T03:11:52.569Z,1.00
2023-01-25T03:14:23.883Z,1.00
2023-01-25T03:16:52.765Z,1.08
2023-01-25T03:19:24.773Z,1.00
2023-01-25T03:21:53.819Z,1.00
2023-01-25T03:24:22.754Z,1.00
2023-01-25T03:27:11.431Z,0.95
2023-01-25T03:29:46.634Z,1.00
2023-01-25T03:32:19.834Z,1.00
2023-01-25T03:34:50.064Z,1.00
2023-01-25T03:37:20.840Z,1.00
2023-01-25T03:39:51.024Z,1.00
2023-01-25T03:42:22.127Z,0.90
2023-01-25T03:44:56.214Z,1.00
2023-01-25T03:47:25.120Z,0.90
2023-01-25T03:49:53.983Z,1.00
2023-01-25T03:52:25.263Z,0.90
2023-01-25T03:54:54.420Z,0.90
2023-01-25T03:57:23.250Z,0.90
2023-01-25T03:59:57.619Z,0.90
2023-01-25T04:02:28.660Z,0.90
2023-01-25T04:04:58.357Z,0.90
2023-01-25T04:07:28.204Z,0.90
2023-01-25T04:09:57.050Z,0.90
2023-01-25T04:12:25.974Z,0.90
2023-01-25T04:14:54.948Z,0.90
2023-01-25T04:17:25.111Z,0.90
2023-01-25T04:20:09.007Z,0.90
2023-01-25T04:22:41.581Z,0.90
2023-01-25T04:25:11.868Z,0.90
2023-01-25T04:27:46.454Z,0.90
2023-01-25T04:30:17.995Z,0.90
2023-01-25T04:32:48.123Z,0.90
2023-01-25T04:35:30.956Z,0.90
2023-01-25T04:38:01.728Z,1.00
2023-01-25T04:40:37.725Z,1.00
2023-01-25T04:43:08.108Z,0.90
2023-01-25T04:45:37.584Z,0.90
2023-01-25T04:48:14.658Z,0.90
2023-01-25T04:50:51.527Z,0.90
2023-01-25T04:53:23.423Z,0.90
2023-01-25T04:55:53.446Z,0.90
2023-01-25T04:58:23.299Z,0.90
2023-01-25T05:00:54.345Z,0.90
2023-01-25T05:03:25.272Z,0.90
2023-01-25T05:05:55.900Z,0.90
2023-01-25T05:08:29.509Z,0.90
2023-01-25T05:11:02.618Z,0.90
2023-01-25T05:13:39.727Z,0.90
2023-01-25T05:16:31.104Z,0.80
2023-01-25T05:19:00.941Z,0.90
2023-01-25T05:24:42.584Z,0.90
2023-01-25T05:27:16.108Z,0.90
2023-01-25T05:30:08.868Z,0.80
2023-01-25T05:32:50.800Z,0.80
2023-01-25T05:35:19.866Z,0.82
2023-01-25T05:37:51.323Z,0.80
2023-01-25T05:40:25.112Z,0.80
2023-01-25T05:43:00.613Z,0.80
2023-01-25T05:45:31.513Z,0.80
2023-01-25T05:48:01.506Z,0.80
2023-01-25T05:50:31.709Z,0.80
2023-01-25T05:53:07.450Z,0.90
2023-01-25T05:55:37.851Z,0.80
2023-01-25T05:58:11.336Z,0.80
2023-01-25T06:00:42.237Z,0.80
2023-01-25T06:03:16.483Z,0.90
2023-01-25T06:05:47.843Z,0.80
2023-01-25T06:08:17.181Z,0.80
2023-01-25T06:10:49.880Z,0.80
2023-01-25T06:13:20.108Z,0.80
2023-01-25T06:15:54.589Z,0.80
2023-01-25T06:18:58.619Z,0.80
2023-01-25T06:21:39.745Z,0.80
2023-01-25T06:24:08.951Z,0.80
2023-01-25T06:26:37.819Z,0.80
2023-01-25T06:29:07.849Z,0.80
2023-01-25T06:31:37.146Z,0.80
2023-01-25T06:34:07.115Z,0.82
2023-01-25T06:36:36.789Z,0.90
2023-01-25T06:39:05.976Z,0.90
2023-01-25T06:41:35.049Z,0.90
2023-01-25T06:44:04.738Z,0.85
2023-01-25T06:46:34.352Z,0.90
2023-01-25T06:49:03.559Z,0.80
2023-01-25T06:51:32.528Z,0.90
2023-01-25T06:54:05.129Z,0.90
2023-01-25T06:56:34.048Z,0.90
2023-01-25T06:59:03.247Z,0.90
2023-01-25T07:01:34.314Z,0.90
2023-01-25T07:04:03.431Z,0.90
2023-01-25T07:06:34.840Z,0.90
2023-01-25T07:09:09.595Z,0.90
2023-01-25T07:11:38.748Z,0.90
2023-01-25T07:14:07.906Z,0.90
2023-01-25T07:16:39.727Z,0.90
2023-01-25T07:19:11.603Z,0.90
2023-01-25T07:21:40.557Z,0.90
2023-01-25T07:24:14.107Z,0.90
2023-01-25T07:26:43.942Z,0.90
2023-01-25T07:29:15.587Z,0.90
2023-01-25T07:31:45.028Z,0.90
2023-01-25T07:34:14.450Z,0.80
2023-01-25T07:36:44.526Z,0.90
2023-01-25T07:39:14.291Z,0.90
2023-01-25T07:41:43.191Z,0.90
2023-01-25T07:44:17.418Z,0.90
2023-01-25T07:46:49.171Z,0.90
2023-01-25T07:49:18.164Z,0.90
2023-01-25T07:51:47.009Z,0.90
2023-01-25T07:54:15.939Z,0.80
2023-01-25T07:56:45.252Z,0.90
2023-01-25T07:59:14.958Z,0.90
2023-01-25T08:01:44.165Z,0.90
2023-01-25T08:04:14.117Z,0.90
2023-01-25T08:06:46.952Z,0.90
2023-01-25T08:09:20.578Z,0.90
2023-01-25T08:11:50.074Z,0.90
2023-01-25T08:14:18.964Z,0.90
2023-01-25T08:16:48.001Z,0.80
2023-01-25T08:19:17.037Z,0.90
2023-01-25T08:21:45.961Z,0.90
2023-01-25T08:24:17.224Z,0.90
2023-01-25T08:26:46.199Z,0.90
2023-01-25T08:29:15.263Z,0.90
2023-01-25T08:31:47.275Z,0.90
2023-01-25T08:34:16.364Z,0.90
2023-01-25T08:36:45.474Z,0.88
2023-01-25T08:39:14.384Z,0.80
2023-01-25T08:41:43.830Z,0.80
2023-01-25T08:44:13.271Z,0.82
2023-01-25T08:46:42.210Z,0.80
2023-01-25T08:49:11.498Z,0.80
2023-01-25T08:51:40.650Z,0.80
2023-01-25T08:54:12.592Z,0.80
2023-01-25T08:56:42.349Z,0.90
2023-01-25T08:59:14.704Z,0.90
2023-01-25T09:01:45.465Z,0.90
2023-01-25T09:04:14.697Z,0.90
2023-01-25T09:06:43.587Z,0.90
2023-01-25T09:09:13.864Z,0.90
2023-01-25T09:11:42.714Z,0.90
2023-01-25T09:14:11.727Z,0.88
2023-01-25T09:16:40.717Z,0.90
2023-01-25T09:19:10.881Z,0.90
2023-01-25T09:21:40.481Z,0.90
2023-01-25T09:24:09.776Z,0.90
2023-01-25T09:26:50.117Z,1.00
2023-01-25T09:31:53.521Z,1.05
2023-01-25T09:34:33.834Z,1.00
2023-01-25T09:37:02.811Z,1.00
2023-01-25T09:39:31.645Z,1.00
2023-01-25T09:42:16.162Z,1.00
2023-01-25T09:45:01.369Z,1.10
2023-01-25T09:47:48.483Z,1.00
2023-01-25T09:50:37.361Z,1.10
2023-01-25T09:53:15.236Z,1.00
2023-01-25T09:55:47.442Z,1.00
2023-01-25T09:58:23.697Z,1.00
2023-01-25T10:01:14.427Z,1.10
2023-01-25T10:03:48.896Z,1.00
2023-01-25T10:06:20.232Z,1.00
2023-01-25T10:09:15.293Z,1.00
2023-01-25T10:11:45.502Z,1.10
2023-01-25T10:14:19.219Z,1.00
2023-01-25T10:16:48.066Z,1.00
2023-01-25T10:19:23.800Z,1.08
2023-01-25T10:22:02.847Z,1.10
2023-01-25T10:25:16.075Z,1.00
2023-01-25T10:28:18.408Z,1.00
2023-01-25T10:30:56.172Z,1.08
2023-01-25T10:33:25.299Z,1.10
2023-01-25T10:35:56.266Z,1.10
2023-01-25T10:38:47.794Z,1.10
2023-01-25T10:41:41.435Z,1.10
2023-01-25T10:44:25.102Z,1.10
2023-01-25T10:47:15.201Z,1.10
2023-01-25T10:49:49.081Z,1.08
2023-01-25T10:52:21.526Z,1.00
2023-01-25T10:55:09.227Z,1.10
2023-01-25T10:57:43.874Z,1.05
2023-01-25T11:00:29.251Z,1.10
2023-01-25T11:02:59.691Z,1.10
2023-01-25T11:05:31.094Z,1.00
2023-01-25T11:08:21.141Z,1.00
2023-01-25T11:10:51.133Z,1.00
2023-01-25T11:13:46.476Z,1.10
2023-01-25T11:16:39.811Z,1.20
2023-01-25T11:19:38.755Z,1.10
2023-01-25T11:22:26.610Z,1.10
2023-01-25T11:24:55.651Z,1.10
2023-01-25T11:27:28.531Z,1.05
2023-01-25T11:30:10.711Z,1.10
2023-01-25T11:32:40.698Z,1.10
2023-01-25T11:35:33.852Z,1.10
2023-01-25T11:38:16.195Z,1.10
2023-01-25T11:41:09.659Z,1.10
2023-01-25T11:43:54.916Z,1.10
2023-01-25T11:46:33.428Z,1.15
2023-01-25T11:49:35.924Z,1.10
2023-01-25T11:52:31.876Z,1.10
2023-01-25T11:55:27.494Z,1.10
2023-01-25T11:58:19.767Z,1.10
2023-01-25T12:01:05.285Z,1.10
2023-01-25T12:03:43.126Z,1.10
2023-01-25T12:06:14.793Z,1.02
2023-01-25T12:09:21.113Z,1.08
2023-01-25T12:12:31.164Z,1.10
2023-01-25T12:15:03.107Z,1.10
2023-01-25T12:18:00.896Z,1.00
2023-01-25T12:20:40.438Z,1.10
2023-01-25T12:23:18.437Z,1.00
2023-01-25T12:25:50.371Z,1.10
2023-01-25T12:28:32.194Z,1.02
2023-01-25T12:31:48.576Z,1.00
2023-01-25T12:34:23.521Z,1.00
2023-01-25T12:36:52.754Z,1.00
2023-01-25T12:39:26.783Z,1.10
2023-01-25T12:42:32.769Z,1.10
2023-01-25T12:45:38.855Z,1.00
2023-01-25T12:48:13.800Z,1.00
2023-01-25T12:50:53.112Z,1.00
2023-01-25T12:53:27.103Z,1.00
2023-01-25T12:55:58.637Z,1.00
2023-01-25T12:58:39.364Z,1.00
2023-01-25T13:01:34.346Z,1.00
2023-01-25T13:04:18.050Z,1.08
2023-01-25T13:07:04.441Z,1.00
2023-01-25T13:09:45.521Z,1.00
2023-01-25T13:12:14.539Z,1.10
2023-01-25T13:14:43.737Z,1.10
2023-01-25T13:17:19.835Z,1.00
2023-01-25T13:22:46.568Z,1.00
2023-01-25T13:25:18.420Z,1.00
2023-01-25T13:27:47.452Z,1.00
2023-01-25T13:30:25.193Z,1.08
2023-01-25T13:32:57.281Z,1.00
2023-01-25T13:35:54.252Z,1.00
2023-01-25T13:38:36.485Z,1.00
2023-01-25T13:41:23.879Z,1.00
2023-01-25T13:44:21.093Z,1.00
2023-01-25T13:46:50.085Z,1.10
2023-01-25T13:49:25.498Z,1.00
2023-01-25T13:51:55.947Z,1.10
2023-01-25T13:54:25.268Z,1.00
2023-01-25T13:57:13.521Z,1.00
2023-01-25T13:59:43.198Z,1.10
2023-01-25T14:02:21.358Z,1.00
2023-01-25T14:04:52.495Z,1.00
2023-01-25T14:07:30.567Z,1.00
2023-01-25T14:10:03.018Z,1.00
2023-01-25T14:12:42.118Z,1.00
2023-01-25T14:15:27.934Z,1.00
2023-01-25T14:18:19.617Z,1.08
2023-01-25T14:20:52.034Z,1.00
2023-01-25T14:23:29.315Z,1.00
2023-01-25T14:26:00.148Z,1.00
2023-01-25T14:28:30.562Z,1.00
2023-01-25T14:31:02.565Z,1.00
2023-01-25T14:33:45.041Z,1.00
2023-01-25T14:36:25.267Z,0.90
2023-01-25T14:38:55.111Z,1.00
2023-01-25T14:41:37.194Z,1.00
2023-01-25T14:44:12.443Z,1.00
2023-01-25T14:46:41.842Z,1.00
2023-01-25T14:49:16.855Z,1.00
2023-01-25T14:51:57.656Z,1.00
2023-01-25T14:54:30.157Z,1.00
2023-01-25T14:57:08.113Z,1.00
2023-01-25T14:59:40.833Z,1.00
2023-01-25T15:02:39.561Z,1.00
2023-01-25T15:05:30.379Z,1.00
2023-01-25T15:08:16.604Z,1.00
2023-01-25T15:10:56.922Z,1.00
2023-01-25T15:13:28.780Z,1.00
2023-01-25T15:16:04.599Z,0.93
2023-01-25T15:18:52.703Z,1.10
2023-01-25T15:21:25.750Z,1.00
2023-01-25T15:24:00.790Z,0.90
2023-01-25T15:26:32.000Z,1.00
2023-01-25T15:29:03.609Z,1.00
2023-01-25T15:31:34.671Z,1.00
2023-01-25T15:34:04.231Z,1.00
2023-01-25T15:36:34.400Z,1.00
2023-01-25T15:39:03.270Z,1.00
2023-01-25T15:41:32.298Z,1.00
2023-01-25T15:44:02.239Z,1.00
2023-01-25T15:46:51.295Z,1.00
2023-01-25T15:49:27.230Z,1.00
2023-01-25T15:51:56.974Z,1.10
2023-01-25T15:54:25.900Z,1.00
2023-01-25T15:56:59.716Z,1.00
2023-01-25T15:59:29.431Z,1.00
2023-01-25T16:01:59.079Z,1.00
2023-01-25T16:04:28.318Z,1.00
2023-01-25T16:06:59.315Z,1.00
2023-01-25T16:09:31.461Z,1.00
2023-01-25T16:12:02.268Z,1.00
2023-01-25T16:14:32.083Z,1.05
2023-01-25T16:17:06.334Z,0.93
2023-01-25T16:19:35.506Z,1.00
2023-01-25T16:22:04.348Z,1.00
2023-01-25T16:24:33.362Z,1.00
2023-01-25T16:27:02.539Z,1.00
2023-01-25T16:29:43.020Z,1.00
2023-01-25T16:32:13.358Z,0.90
2023-01-25T16:34:42.324Z,1.00
2023-01-25T16:37:19.269Z,1.00
2023-01-25T16:39:48.333Z,0.90
2023-01-25T16:42:17.284Z,1.00
2023-01-25T16:44:48.123Z,1.00
2023-01-25T16:47:16.952Z,1.00
2023-01-25T16:49:45.867Z,1.00
2023-01-25T16:52:14.762Z,1.00
2023-01-25T16:54:43.629Z,1.00
2023-01-25T16:57:20.371Z,1.00
2023-01-25T16:59:50.158Z,1.00
2023-01-25T17:02:19.622Z,1.00
2023-01-25T17:04:48.979Z,0.90
2023-01-25T17:07:17.854Z,1.00
2023-01-25T17:09:46.649Z,0.93
2023-01-25T17:12:15.531Z,0.98
2023-01-25T17:14:44.561Z,1.00
2023-01-25T17:17:13.404Z,0.95
2023-01-25T17:19:42.275Z,1.00
2023-01-25T17:22:11.219Z,0.90
2023-01-25T17:24:40.281Z,0.90
2023-01-25T17:27:09.164Z,0.90
2023-01-25T17:29:38.327Z,1.00
2023-01-25T17:32:07.350Z,0.90
2023-01-25T17:34:36.147Z,0.95
2023-01-25T17:37:05.003Z,1.00
2023-01-25T17:39:33.932Z,0.90
2023-01-25T17:42:02.837Z,0.90
2023-01-25T17:44:31.950Z,1.00
2023-01-25T17:47:01.150Z,0.90
2023-01-25T17:49:31.239Z,0.90
2023-01-25T17:52:00.041Z,1.00
2023-01-25T17:54:28.958Z,0.90
2023-01-25T17:56:57.902Z,0.90
2023-01-25T17:59:26.771Z,0.90
2023-01-25T18:01:56.485Z,0.90
2023-01-25T18:04:26.096Z,0.90
2023-01-25T18:06:54.947Z,0.90
2023-01-25T18:09:24.425Z,0.95
2023-01-25T18:11:53.242Z,0.90
2023-01-25T18:14:22.140Z,1.00
2023-01-25T18:16:51.179Z,0.90
2023-01-25T18:19:20.167Z,0.90
2023-01-25T18:21:48.990Z,0.90
2023-01-25T18:24:27.797Z,0.90
2023-01-25T18:27:09.022Z,1.00
2023-01-25T18:29:46.158Z,0.90
2023-01-25T18:32:17.186Z,0.90
2023-01-25T18:34:47.435Z,0.90
2023-01-25T18:37:21.668Z,0.90
2023-01-25T18:39:53.556Z,0.90
2023-01-25T18:42:24.680Z,1.00
2023-01-25T18:44:53.922Z,0.90
2023-01-25T18:47:23.857Z,1.00
2023-01-25T18:49:53.902Z,0.90
2023-01-25T18:52:23.833Z,0.90
2023-01-25T18:54:53.848Z,0.90
2023-01-25T18:57:22.761Z,0.90
2023-01-25T18:59:52.066Z,0.90
2023-01-25T19:02:24.311Z,0.90
2023-01-25T19:04:53.463Z,0.90
2023-01-25T19:07:22.529Z,0.90
2023-01-25T19:09:51.531Z,0.90
2023-01-25T19:12:20.350Z,0.90
2023-01-25T19:14:49.338Z,0.90
2023-01-25T19:17:18.381Z,0.90
2023-01-25T19:19:47.212Z,0.90
2023-01-25T19:22:16.132Z,0.80
2023-01-25T19:24:44.944Z,0.90
2023-01-25T19:27:13.770Z,0.90
2023-01-25T19:29:42.626Z,0.90
2023-01-25T19:32:11.549Z,0.90
2023-01-25T19:34:40.703Z,0.90
2023-01-25T19:37:09.533Z,0.90
2023-01-25T19:39:38.453Z,0.90
2023-01-25T19:42:07.546Z,0.90
2023-01-25T19:44:36.400Z,0.90
2023-01-25T19:47:05.349Z,0.90
2023-01-25T19:49:37.336Z,0.90
2023-01-25T19:52:06.307Z,0.90
2023-01-25T19:54:35.136Z,0.90
2023-01-25T19:57:04.035Z,0.90
2023-01-25T19:59:32.844Z,0.90
2023-01-25T20:02:02.971Z,0.80
2023-01-25T20:04:32.563Z,0.90
2023-01-25T20:07:01.413Z,0.88
2023-01-25T20:09:30.251Z,0.80
2023-01-25T20:11:59.961Z,0.80
2023-01-25T20:14:28.828Z,0.90
2023-01-25T20:16:57.692Z,0.90
2023-01-25T20:19:26.640Z,0.90
2023-01-25T20:21:55.740Z,0.90
2023-01-25T20:24:24.723Z,0.90
2023-01-25T20:26:53.700Z,0.90
2023-01-25T20:29:24.480Z,0.90
2023-01-25T20:31:54.555Z,0.90
2023-01-25T20:34:24.808Z,0.90
2023-01-25T20:36:53.690Z,0.90
2023-01-25T20:39:23.711Z,0.90
2023-01-25T20:41:54.075Z,0.90
2023-01-25T20:44:23.076Z,0.90
2023-01-25T20:46:52.560Z,0.90
2023-01-25T20:49:21.564Z,0.90
2023-01-25T20:51:50.409Z,0.90
2023-01-25T20:54:21.215Z,0.90
2023-01-25T20:56:51.117Z,1.00
2023-01-25T20:59:27.715Z,0.90
2023-01-25T21:01:57.651Z,1.00
2023-01-25T21:04:26.822Z,0.98
2023-01-25T21:06:55.708Z,0.90
2023-01-25T21:09:26.816Z,0.90
2023-01-25T21:11:55.704Z,1.00
2023-01-25T21:14:24.483Z,1.00
2023-01-25T21:16:53.360Z,1.00
2023-01-25T21:19:22.207Z,1.00
2023-01-25T21:21:51.162Z,1.00
2023-01-25T21:24:20.067Z,1.00
2023-01-25T21:26:49.045Z,1.00
2023-01-25T21:29:17.935Z,1.00
2023-01-25T21:31:46.815Z,1.00
2023-01-25T21:34:15.735Z,1.00
2023-01-25T21:36:44.561Z,1.00
2023-01-25T21:39:13.390Z,1.00
2023-01-25T21:41:42.355Z,1.00
2023-01-25T21:44:29.927Z,0.90
2023-01-25T21:47:28.311Z,0.98
2023-01-25T21:50:06.132Z,1.00
2023-01-25T21:52:37.972Z,0.90
2023-01-25T21:55:07.883Z,1.00
2023-01-25T21:57:36.837Z,1.00
2023-01-25T22:00:07.119Z,1.00
2023-01-25T22:02:36.573Z,1.00
2023-01-25T22:05:05.642Z,0.90
2023-01-25T22:07:34.555Z,0.90
2023-01-25T22:10:03.906Z,0.90
2023-01-25T22:12:32.959Z,0.90
2023-01-25T22:15:02.411Z,0.90
2023-01-25T22:17:31.672Z,0.90
2023-01-25T22:20:00.661Z,0.90
2023-01-25T22:22:31.683Z,0.90
2023-01-25T22:25:00.422Z,0.98
2023-01-25T22:27:54.866Z,0.90
2023-01-25T22:30:23.787Z,0.90
2023-01-25T22:32:52.698Z,0.90
2023-01-25T22:35:21.802Z,0.90
2023-01-25T22:37:50.747Z,0.90
2023-01-25T22:40:19.611Z,1.00
2023-01-25T22:42:48.444Z,0.90
2023-01-25T22:45:17.312Z,0.90
2023-01-25T22:47:46.251Z,1.00
2023-01-25T22:50:15.131Z,1.00
2023-01-25T22:52:44.025Z,0.93
2023-01-25T22:55:13.140Z,1.00
2023-01-25T22:57:42.025Z,1.00
2023-01-25T23:00:12.705Z,1.00
2023-01-25T23:02:42.092Z,1.00
2023-01-25T23:05:11.006Z,0.93
2023-01-25T23:07:39.844Z,0.90
2023-01-25T23:10:09.614Z,1.00
2023-01-25T23:12:38.721Z,1.00
2023-01-25T23:15:15.904Z,0.98
2023-01-25T23:18:03.559Z,1.00
2023-01-25T23:20:32.410Z,1.00
2023-01-25T23:23:01.298Z,1.00
2023-01-25T23:25:31.584Z,1.00
2023-01-25T23:28:00.458Z,1.00
2023-01-25T23:30:30.016Z,1.00
2023-01-25T23:32:59.603Z,1.00
2023-01-25T23:35:32.408Z,1.00
2023-01-25T23:38:04.331Z,1.02
2023-01-25T23:40:33.160Z,1.00
2023-01-25T23:43:01.891Z,1.00
2023-01-25T23:45:30.786Z,1.00
2023-01-25T23:47:59.843Z,1.00
2023-01-25T23:50:28.956Z,1.00
2023-01-25T23:52:57.848Z,1.00
2023-01-25T23:55:26.768Z,1.00
2023-01-25T23:57:55.758Z,1.00
